Emuna — PBOU — position and weather

sailwx.info

Track history (hours):
 
Tides and Currents Weather Stations Pressure Air Temp Water Temp Dewpoint Dewpoint Depression Visibility Wind Speed Wind Dir Waves Ship Positions

Emuna

Last reported at 2018-Jun-24 03:30 UTC. Time now 2018-Jun-24 03:39 UTC.
Position N 49°24' E 001°01'.

Length 90 m; draft 3.8 m.

Type: Cargo ship. MMSI: 246090000.

Date/timePositionNaut miles runAvg speedWind from/ knotsBaromVisibWave heightAir tempDewpointWater temp
2018-Jun-24 03:30N 49°24' E 001°01'0 0.0
2018-Jun-24 03:00N 49°24' E 001°01'0 0.0
2018-Jun-24 02:30N 49°24' E 001°01'0 0.0
2018-Jun-24 02:00N 49°24' E 001°01'0 0.0
2018-Jun-24 01:30N 49°24' E 001°01'0 0.0
2018-Jun-24 01:00N 49°24' E 001°01'0 0.0
2018-Jun-24 00:30N 49°24' E 001°01'0 0.0
2018-Jun-24 00:00N 49°24' E 001°01'0 0.0
2018-Jun-23 23:30N 49°24' E 001°01'0 0.0
2018-Jun-23 23:00N 49°24' E 001°01'0 0.0
2018-Jun-23 22:30N 49°24' E 001°01'0 0.0
2018-Jun-23 22:00N 49°24' E 001°01'0 0.0
2018-Jun-23 21:30N 49°24' E 001°01'0 0.0
2018-Jun-23 21:00N 49°24' E 001°01'0 0.0
2018-Jun-23 20:30N 49°24' E 001°01'0 0.0
2018-Jun-23 20:00N 49°24' E 001°01'0 0.0
2018-Jun-23 19:30N 49°24' E 001°01'0 0.0
2018-Jun-23 19:00N 49°24' E 001°01'0 0.0
2018-Jun-23 18:30N 49°24' E 001°01'0 0.0
2018-Jun-23 18:00N 49°24' E 001°01'0 0.0
2018-Jun-23 17:30N 49°24' E 001°01'0 0.0
2018-Jun-23 17:00N 49°24' E 001°01'0 0.0
2018-Jun-23 16:30N 49°24' E 001°01'0 0.0
2018-Jun-23 16:00N 49°24' E 001°01'0 0.0
2018-Jun-23 15:30N 49°24' E 001°01'0 0.0
2018-Jun-23 15:00N 49°24' E 001°01'0 0.0
2018-Jun-23 14:30N 49°24' E 001°01'0 0.0
2018-Jun-23 13:59N 49°24' E 001°01'0 0.0
2018-Jun-23 13:30N 49°24' E 001°01'0 0.0
2018-Jun-23 13:00N 49°24' E 001°01'0 0.0
2018-Jun-23 12:30N 49°24' E 001°01'0 0.0
2018-Jun-23 12:00N 49°24' E 001°01'0 0.0
2018-Jun-23 11:30N 49°24' E 001°01'0 0.0
2018-Jun-23 11:00N 49°24' E 001°01'0 0.0
2018-Jun-23 10:30N 49°24' E 001°01'0 0.0
2018-Jun-23 10:00N 49°24' E 001°01'0 0.0
2018-Jun-23 09:30N 49°24' E 001°01'0 0.0
2018-Jun-23 09:00N 49°24' E 001°01'0 0.0
2018-Jun-23 08:30N 49°24' E 001°01'0 0.0
2018-Jun-23 08:00N 49°24' E 001°01'0 0.0
2018-Jun-23 07:30N 49°24' E 001°01'3 5.1
2018-Jun-23 07:00N 49°21' E 000°59'4 8.0
2018-Jun-23 06:30N 49°25' E 000°56'5 9.1
2018-Jun-23 06:00N 49°29' E 000°52'510.4
2018-Jun-23 05:30N 49°24' E 000°50'510.8
2018-Jun-23 05:00N 49°29' E 000°47'5 9.4
2018-Jun-23 04:30N 49°31' E 000°41'612.1
2018-Jun-23 04:00N 49°26' E 000°36'611.6
2018-Jun-23 03:30N 49°29' E 000°29'612.7
2018-Jun-23 03:00N 49°26' E 000°20'611.9
2018-Jun-23 02:30N 49°26' E 000°11'611.3
2018-Jun-23 02:00N 49°27' E 000°03'510.4
2018-Jun-23 01:30N 49°29' W 000°05'4 7.7
2018-Jun-23 00:59N 49°33' W 000°05'4 8.6
2018-Jun-23 00:30N 49°37' W 000°03'4 8.7
2018-Jun-23 00:00N 49°41' W 000°00'4 8.6
2018-Jun-22 23:29N 49°44' E 000°04'4 9.3
2018-Jun-22 23:00N 49°46' E 000°10'50 9.1
2018-Jun-22 17:31N 50°04' E 001°23'0 1.8
2018-Jun-22 17:29N 50°04' E 001°23'41 0.9
2018-Jun-20 21:40N 50°01' E 000°20'1 6.4
2018-Jun-20 21:29N 50°01' E 000°18'3 6.2
2018-Jun-20 21:00N 50°00' E 000°13'3 6.2
2018-Jun-20 20:30N 50°00' E 000°09'3 6.2
2018-Jun-20 19:57N 50°00' E 000°03'3 6.3
2018-Jun-20 19:29N 49°60' W 000°01'3 6.4
2018-Jun-20 19:00N 49°60' W 000°06'3 6.7
2018-Jun-20 18:30N 49°59' W 000°11'3 6.8
2018-Jun-20 18:00N 49°59' W 000°16'4 7.1
2018-Jun-20 17:30N 49°59' W 000°22'4 7.3
2018-Jun-20 17:00N 49°58' W 000°28'4 7.8
2018-Jun-20 16:30N 49°58' W 000°34'4 8.2
2018-Jun-20 15:59N 49°57' W 000°40'5 9.0
2018-Jun-20 15:23N 49°57' W 000°49'710.0
2018-Jun-20 14:42N 49°57' W 000°59'411.6
2018-Jun-20 14:21N 49°57' W 001°06'412.2
2018-Jun-20 14:00N 49°56' W 001°12'1112.6
2018-Jun-20 13:09N 49°56' W 001°29'122 8.9
2018-Jun-19 23:28N 49°03' W 004°18'710.1
2018-Jun-19 22:47N 48°59' W 004°27'410.3
2018-Jun-19 22:21N 48°57' W 004°33'510.7
2018-Jun-19 21:51N 48°54' W 004°40'411.1
2018-Jun-19 21:29N 48°51' W 004°45'511.2
2018-Jun-19 21:00N 48°48' W 004°52'611.4
2018-Jun-19 20:30N 48°45' W 004°59'611.4
2018-Jun-19 20:00N 48°42' W 005°06'611.7
2018-Jun-19 19:30N 48°38' W 005°13'611.5
2018-Jun-19 19:00N 48°34' W 005°19'510.9
2018-Jun-19 18:30N 48°30' W 005°24'610.2
2018-Jun-19 17:56N 48°24' W 005°24'510.1
2018-Jun-19 17:29N 48°19' W 005°25'510.9
2018-Jun-19 17:00N 48°14' W 005°25'510.2
2018-Jun-19 16:30N 48°09' W 005°25'1010.1
2018-Jun-19 15:33N 47°60' W 005°26'10 9.5
2018-Jun-19 14:32N 47°50' W 005°27'0 7.8
2018-Jun-19 14:30N 47°50' W 005°27'23 9.5
2018-Jun-19 12:08N 47°27' W 005°31'1 9.4
2018-Jun-19 12:00N 47°26' W 005°32'11 9.2
2018-Jun-19 10:52N 47°16' W 005°32'5 9.8
2018-Jun-19 10:24N 47°11' W 005°32'11 9.8
2018-Jun-19 09:19N 47°00' W 005°33'19210.2
2018-Jun-18 14:27N 43°49' W 005°56'5 9.9
2018-Jun-18 13:58N 43°44' W 005°56'  
2018-Jun-15 22:36N 43°34' W 003°49'1 8.6
2018-Jun-15 22:30N 43°34' W 003°48'5 8.4
2018-Jun-15 21:54N 43°34' W 003°41'4 8.6
2018-Jun-15 21:27N 43°33' W 003°35'5 8.6
2018-Jun-15 20:55N 43°33' W 003°29'4 8.6
2018-Jun-15 20:30N 43°32' W 003°24'4 8.8
2018-Jun-15 20:00N 43°30' W 003°19'4 8.7
2018-Jun-15 19:30N 43°28' W 003°14'5 8.7
2018-Jun-15 18:58N 43°25' W 003°09'4 8.3
2018-Jun-15 18:29N 43°23' W 003°05'3 1.3
2018-Jun-15 16:16N 43°20' W 003°02'0 0.0
2018-Jun-15 15:58N 43°20' W 003°02'0 0.0
2018-Jun-15 15:25N 43°20' W 003°02'0 0.0
2018-Jun-15 14:58N 43°20' W 003°02'0 0.0
2018-Jun-15 14:19N 43°20' W 003°02'0 0.0
2018-Jun-15 13:58N 43°20' W 003°02'0 0.0
2018-Jun-15 13:13N 43°20' W 003°02'0 0.0
2018-Jun-15 12:58N 43°20' W 003°02'0 0.0
2018-Jun-15 07:16N 43°20' W 003°02'0 0.0
2018-Jun-15 06:22N 43°20' W 003°02'0 0.0
2018-Jun-15 05:58N 43°20' W 003°02'0 0.0
2018-Jun-15 05:13N 43°20' W 003°02'0 0.0
2018-Jun-15 04:43N 43°20' W 003°02'0 0.0
2018-Jun-15 04:28N 43°20' W 003°02'0 0.0
2018-Jun-15 03:58N 43°20' W 003°02'0 0.0
2018-Jun-15 02:55N 43°20' W 003°02'0 0.0
2018-Jun-15 02:22N 43°20' W 003°02'0 0.0
2018-Jun-15 01:58N 43°20' W 003°02'0 0.0
2018-Jun-15 01:25N 43°20' W 003°02'0 0.0
2018-Jun-15 00:58N 43°20' W 003°02'0 0.0
2018-Jun-15 00:28N 43°20' W 003°02'0 0.0
2018-Jun-14 22:22N 43°20' W 003°02'0 0.0
2018-Jun-14 17:35N 43°20' W 003°02'0 0.0
2018-Jun-14 17:27N 43°20' W 003°02'0 0.0
2018-Jun-14 16:59N 43°20' W 003°02'0 0.0
2018-Jun-14 16:29N 43°20' W 003°02'0 0.0
2018-Jun-14 16:00N 43°20' W 003°02'0 0.0
2018-Jun-14 15:30N 43°20' W 003°02'0 0.0
2018-Jun-14 15:00N 43°20' W 003°02'0 0.0
2018-Jun-14 14:30N 43°20' W 003°02'0 0.0
2018-Jun-14 14:00N 43°20' W 003°02'0 0.0
2018-Jun-14 13:28N 43°20' W 003°02'0 0.0
2018-Jun-14 13:00N 43°20' W 003°02'0 0.0
2018-Jun-14 12:30N 43°20' W 003°02'0 0.0
2018-Jun-14 12:00N 43°20' W 003°02'0 0.0
2018-Jun-14 11:28N 43°20' W 003°02'0 0.0
2018-Jun-14 10:55N 43°20' W 003°02'0 0.0
2018-Jun-14 10:30N 43°20' W 003°02'0 0.0
2018-Jun-14 09:59N 43°20' W 003°02'0 0.0
2018-Jun-14 09:30N 43°20' W 003°02'0 0.0
2018-Jun-14 08:59N 43°20' W 003°02'0 0.0
2018-Jun-14 08:30N 43°20' W 003°02'0 0.0
2018-Jun-14 08:00N 43°20' W 003°02'0 0.0
2018-Jun-14 07:30N 43°20' W 003°02'0 0.0
2018-Jun-14 07:00N 43°20' W 003°02'0 0.0
2018-Jun-14 06:30N 43°20' W 003°02'0 0.0
2018-Jun-14 06:00N 43°20' W 003°02'0 0.0
2018-Jun-14 05:30N 43°20' W 003°02'0 0.0
2018-Jun-14 04:59N 43°20' W 003°02'0 0.0
2018-Jun-14 04:30N 43°20' W 003°02'1 3.0
2018-Jun-14 04:00N 43°22' W 003°03'  
Track history (hours):
 
Tides and Currents Weather Stations Pressure Air Temp Water Temp Dewpoint Dewpoint Depression Visibility Wind Speed Wind Dir Waves Ship Positions

Emuna

Last reported at 2018-Jun-24 03:30 UTC. Time now 2018-Jun-24 03:39 UTC.
Position N 49°24' E 001°01'.

Length 90 m; draft 3.8 m.

Type: Cargo ship. MMSI: 246090000.

Date/timePositionNaut miles runAvg speedWind from/ knotsBaromVisibWave heightAir tempDewpointWater temp
2018-Jun-24 03:30N 49°24' E 001°01'0 0.0
2018-Jun-24 03:00N 49°24' E 001°01'0 0.0
2018-Jun-24 02:30N 49°24' E 001°01'0 0.0
2018-Jun-24 02:00N 49°24' E 001°01'0 0.0
2018-Jun-24 01:30N 49°24' E 001°01'0 0.0
2018-Jun-24 01:00N 49°24' E 001°01'0 0.0
2018-Jun-24 00:30N 49°24' E 001°01'0 0.0
2018-Jun-24 00:00N 49°24' E 001°01'0 0.0
2018-Jun-23 23:30N 49°24' E 001°01'0 0.0
2018-Jun-23 23:00N 49°24' E 001°01'0 0.0
2018-Jun-23 22:30N 49°24' E 001°01'0 0.0
2018-Jun-23 22:00N 49°24' E 001°01'0 0.0
2018-Jun-23 21:30N 49°24' E 001°01'0 0.0
2018-Jun-23 21:00N 49°24' E 001°01'0 0.0
2018-Jun-23 20:30N 49°24' E 001°01'0 0.0
2018-Jun-23 20:00N 49°24' E 001°01'0 0.0
2018-Jun-23 19:30N 49°24' E 001°01'0 0.0
2018-Jun-23 19:00N 49°24' E 001°01'0 0.0
2018-Jun-23 18:30N 49°24' E 001°01'0 0.0
2018-Jun-23 18:00N 49°24' E 001°01'0 0.0
2018-Jun-23 17:30N 49°24' E 001°01'0 0.0
2018-Jun-23 17:00N 49°24' E 001°01'0 0.0
2018-Jun-23 16:30N 49°24' E 001°01'0 0.0
2018-Jun-23 16:00N 49°24' E 001°01'0 0.0
2018-Jun-23 15:30N 49°24' E 001°01'0 0.0
2018-Jun-23 15:00N 49°24' E 001°01'0 0.0
2018-Jun-23 14:30N 49°24' E 001°01'0 0.0
2018-Jun-23 13:59N 49°24' E 001°01'0 0.0
2018-Jun-23 13:30N 49°24' E 001°01'0 0.0
2018-Jun-23 13:00N 49°24' E 001°01'0 0.0
2018-Jun-23 12:30N 49°24' E 001°01'0 0.0
2018-Jun-23 12:00N 49°24' E 001°01'0 0.0
2018-Jun-23 11:30N 49°24' E 001°01'0 0.0
2018-Jun-23 11:00N 49°24' E 001°01'0 0.0
2018-Jun-23 10:30N 49°24' E 001°01'0 0.0
2018-Jun-23 10:00N 49°24' E 001°01'0 0.0
2018-Jun-23 09:30N 49°24' E 001°01'0 0.0
2018-Jun-23 09:00N 49°24' E 001°01'0 0.0
2018-Jun-23 08:30N 49°24' E 001°01'0 0.0
2018-Jun-23 08:00N 49°24' E 001°01'0 0.0
2018-Jun-23 07:30N 49°24' E 001°01'3 5.1
2018-Jun-23 07:00N 49°21' E 000°59'4 8.0
2018-Jun-23 06:30N 49°25' E 000°56'5 9.1
2018-Jun-23 06:00N 49°29' E 000°52'510.4
2018-Jun-23 05:30N 49°24' E 000°50'510.8
2018-Jun-23 05:00N 49°29' E 000°47'5 9.4
2018-Jun-23 04:30N 49°31' E 000°41'612.1
2018-Jun-23 04:00N 49°26' E 000°36'611.6
2018-Jun-23 03:30N 49°29' E 000°29'612.7
2018-Jun-23 03:00N 49°26' E 000°20'611.9
2018-Jun-23 02:30N 49°26' E 000°11'611.3
2018-Jun-23 02:00N 49°27' E 000°03'510.4
2018-Jun-23 01:30N 49°29' W 000°05'4 7.7
2018-Jun-23 00:59N 49°33' W 000°05'4 8.6
2018-Jun-23 00:30N 49°37' W 000°03'4 8.7
2018-Jun-23 00:00N 49°41' W 000°00'4 8.6
2018-Jun-22 23:29N 49°44' E 000°04'4 9.3
2018-Jun-22 23:00N 49°46' E 000°10'50 9.1
2018-Jun-22 17:31N 50°04' E 001°23'0 1.8
2018-Jun-22 17:29N 50°04' E 001°23'41 0.9
2018-Jun-20 21:40N 50°01' E 000°20'1 6.4
2018-Jun-20 21:29N 50°01' E 000°18'3 6.2
2018-Jun-20 21:00N 50°00' E 000°13'3 6.2
2018-Jun-20 20:30N 50°00' E 000°09'3 6.2
2018-Jun-20 19:57N 50°00' E 000°03'3 6.3
2018-Jun-20 19:29N 49°60' W 000°01'3 6.4
2018-Jun-20 19:00N 49°60' W 000°06'3 6.7
2018-Jun-20 18:30N 49°59' W 000°11'3 6.8
2018-Jun-20 18:00N 49°59' W 000°16'4 7.1
2018-Jun-20 17:30N 49°59' W 000°22'4 7.3
2018-Jun-20 17:00N 49°58' W 000°28'4 7.8
2018-Jun-20 16:30N 49°58' W 000°34'4 8.2
2018-Jun-20 15:59N 49°57' W 000°40'5 9.0
2018-Jun-20 15:23N 49°57' W 000°49'710.0
2018-Jun-20 14:42N 49°57' W 000°59'411.6
2018-Jun-20 14:21N 49°57' W 001°06'412.2
2018-Jun-20 14:00N 49°56' W 001°12'1112.6
2018-Jun-20 13:09N 49°56' W 001°29'122 8.9
2018-Jun-19 23:28N 49°03' W 004°18'710.1
2018-Jun-19 22:47N 48°59' W 004°27'410.3
2018-Jun-19 22:21N 48°57' W 004°33'510.7
2018-Jun-19 21:51N 48°54' W 004°40'411.1
2018-Jun-19 21:29N 48°51' W 004°45'511.2
2018-Jun-19 21:00N 48°48' W 004°52'611.4
2018-Jun-19 20:30N 48°45' W 004°59'611.4
2018-Jun-19 20:00N 48°42' W 005°06'611.7
2018-Jun-19 19:30N 48°38' W 005°13'611.5
2018-Jun-19 19:00N 48°34' W 005°19'510.9
2018-Jun-19 18:30N 48°30' W 005°24'610.2
2018-Jun-19 17:56N 48°24' W 005°24'510.1
2018-Jun-19 17:29N 48°19' W 005°25'510.9
2018-Jun-19 17:00N 48°14' W 005°25'510.2
2018-Jun-19 16:30N 48°09' W 005°25'1010.1
2018-Jun-19 15:33N 47°60' W 005°26'10 9.5
2018-Jun-19 14:32N 47°50' W 005°27'0 7.8
2018-Jun-19 14:30N 47°50' W 005°27'23 9.5
2018-Jun-19 12:08N 47°27' W 005°31'1 9.4
2018-Jun-19 12:00N 47°26' W 005°32'11 9.2
2018-Jun-19 10:52N 47°16' W 005°32'5 9.8
2018-Jun-19 10:24N 47°11' W 005°32'11 9.8
2018-Jun-19 09:19N 47°00' W 005°33'19210.2
2018-Jun-18 14:27N 43°49' W 005°56'5 9.9
2018-Jun-18 13:58N 43°44' W 005°56'  
2018-Jun-15 22:36N 43°34' W 003°49'1 8.6
2018-Jun-15 22:30N 43°34' W 003°48'5 8.4
2018-Jun-15 21:54N 43°34' W 003°41'4 8.6
2018-Jun-15 21:27N 43°33' W 003°35'5 8.6
2018-Jun-15 20:55N 43°33' W 003°29'4 8.6
2018-Jun-15 20:30N 43°32' W 003°24'4 8.8
2018-Jun-15 20:00N 43°30' W 003°19'4 8.7
2018-Jun-15 19:30N 43°28' W 003°14'5 8.7
2018-Jun-15 18:58N 43°25' W 003°09'4 8.3
2018-Jun-15 18:29N 43°23' W 003°05'3 1.3
2018-Jun-15 16:16N 43°20' W 003°02'0 0.0
2018-Jun-15 15:58N 43°20' W 003°02'0 0.0
2018-Jun-15 15:25N 43°20' W 003°02'0 0.0
2018-Jun-15 14:58N 43°20' W 003°02'0 0.0
2018-Jun-15 14:19N 43°20' W 003°02'0 0.0
2018-Jun-15 13:58N 43°20' W 003°02'0 0.0
2018-Jun-15 13:13N 43°20' W 003°02'0 0.0
2018-Jun-15 12:58N 43°20' W 003°02'0 0.0
2018-Jun-15 07:16N 43°20' W 003°02'0 0.0
2018-Jun-15 06:22N 43°20' W 003°02'0 0.0
2018-Jun-15 05:58N 43°20' W 003°02'0 0.0
2018-Jun-15 05:13N 43°20' W 003°02'0 0.0
2018-Jun-15 04:43N 43°20' W 003°02'0 0.0
2018-Jun-15 04:28N 43°20' W 003°02'0 0.0
2018-Jun-15 03:58N 43°20' W 003°02'0 0.0
2018-Jun-15 02:55N 43°20' W 003°02'0 0.0
2018-Jun-15 02:22N 43°20' W 003°02'0 0.0
2018-Jun-15 01:58N 43°20' W 003°02'0 0.0
2018-Jun-15 01:25N 43°20' W 003°02'0 0.0
2018-Jun-15 00:58N 43°20' W 003°02'0 0.0
2018-Jun-15 00:28N 43°20' W 003°02'0 0.0
2018-Jun-14 22:22N 43°20' W 003°02'0 0.0
2018-Jun-14 17:35N 43°20' W 003°02'0 0.0
2018-Jun-14 17:27N 43°20' W 003°02'0 0.0
2018-Jun-14 16:59N 43°20' W 003°02'0 0.0
2018-Jun-14 16:29N 43°20' W 003°02'0 0.0
2018-Jun-14 16:00N 43°20' W 003°02'0 0.0
2018-Jun-14 15:30N 43°20' W 003°02'0 0.0
2018-Jun-14 15:00N 43°20' W 003°02'0 0.0
2018-Jun-14 14:30N 43°20' W 003°02'0 0.0
2018-Jun-14 14:00N 43°20' W 003°02'0 0.0
2018-Jun-14 13:28N 43°20' W 003°02'0 0.0
2018-Jun-14 13:00N 43°20' W 003°02'0 0.0
2018-Jun-14 12:30N 43°20' W 003°02'0 0.0
2018-Jun-14 12:00N 43°20' W 003°02'0 0.0
2018-Jun-14 11:28N 43°20' W 003°02'0 0.0
2018-Jun-14 10:55N 43°20' W 003°02'0 0.0
2018-Jun-14 10:30N 43°20' W 003°02'0 0.0
2018-Jun-14 09:59N 43°20' W 003°02'0 0.0
2018-Jun-14 09:30N 43°20' W 003°02'0 0.0
2018-Jun-14 08:59N 43°20' W 003°02'0 0.0
2018-Jun-14 08:30N 43°20' W 003°02'0 0.0
2018-Jun-14 08:00N 43°20' W 003°02'0 0.0
2018-Jun-14 07:30N 43°20' W 003°02'0 0.0
2018-Jun-14 07:00N 43°20' W 003°02'0 0.0
2018-Jun-14 06:30N 43°20' W 003°02'0 0.0
2018-Jun-14 06:00N 43°20' W 003°02'0 0.0
2018-Jun-14 05:30N 43°20' W 003°02'0 0.0
2018-Jun-14 04:59N 43°20' W 003°02'0 0.0
2018-Jun-14 04:30N 43°20' W 003°02'1 3.0
2018-Jun-14 04:00N 43°22' W 003°03'  

Dump ship's entire track history